sensor_id;sensor_type;location;lat;lon;timestamp;P1;durP1;ratioP1;P2;durP2;ratioP2
26824;SDS011;14402;48.178;11.566;2022-11-15T00:00:15;9.5;;;8.5;;
26824;SDS011;14402;48.178;11.566;2022-11-15T00:00:45;7.9;;;6.9;;
26824;SDS011;14402;48.178;11.566;2022-11-15T00:01:16;6.3;;;5.3;;
26824;SDS011;14402;48.178;11.566;2022-11-15T00:01:45;6.3;;;5.3;;
26824;SDS011;14402;48.178;11.566;2022-11-15T00:02:15;6.3;;;5.3;;
26824;SDS011;14402;48.178;11.566;2022-11-15T00:02:45;6.2;;;5.4;;
26824;SDS011;14402;48.178;11.566;2022-11-15T00:03:15;6.2;;;5.6;;
26824;SDS011;14402;48.178;11.566;2022-11-15T00:03:45;6.2;;;5.6;;
26824;SDS011;14402;48.178;11.566;2022-11-15T00:04:15;6.2;;;5.6;;
26824;SDS011;14402;48.178;11.566;2022-11-15T00:04:45;5.4;;;4.8;;
26824;SDS011;14402;48.178;11.566;2022-11-15T00:05:15;4.6;;;4.1;;
26824;SDS011;14402;48.178;11.566;2022-11-15T00:05:45;4.6;;;4.1;;
26824;SDS011;14402;48.178;11.566;2022-11-15T00:06:16;4.6;;;4.1;;
26824;SDS011;14402;48.178;11.566;2022-11-15T00:06:46;5.7;;;4.8;;
26824;SDS011;14402;48.178;11.566;2022-11-15T00:07:16;6.8;;;5.4;;
26824;SDS011;14402;48.178;11.566;2022-11-15T00:07:46;6.8;;;5.4;;
26824;SDS011;14402;48.178;11.566;2022-11-15T00:08:16;6.8;;;5.4;;
26824;SDS011;14402;48.178;11.566;2022-11-15T00:08:46;6.6;;;5.4;;
26824;SDS011;14402;48.178;11.566;2022-11-15T00:09:16;6.4;;;5.3;;
26824;SDS011;14402;48.178;11.566;2022-11-15T00:09:46;6.4;;;5.3;;
26824;SDS011;14402;48.178;11.566;2022-11-15T00:10:16;6.4;;;5.3;;
26824;SDS011;14402;48.178;11.566;2022-11-15T00:10:53;6.6;;;5.4;;
26824;SDS011;14402;48.178;11.566;2022-11-15T00:11:16;6.8;;;5.5;;
26824;SDS011;14402;48.178;11.566;2022-11-15T00:11:46;6.8;;;5.5;;
26824;SDS011;14402;48.178;11.566;2022-11-15T00:12:17;6.8;;;5.5;;
26824;SDS011;14402;48.178;11.566;2022-11-15T00:12:47;6.2;;;5.1;;
26824;SDS011;14402;48.178;11.566;2022-11-15T00:13:17;5.6;;;4.6;;
26824;SDS011;14402;48.178;11.566;2022-11-15T00:13:47;5.6;;;4.6;;
26824;SDS011;14402;48.178;11.566;2022-11-15T00:14:17;5.6;;;4.6;;
26824;SDS011;14402;48.178;11.566;2022-11-15T00:14:47;5.4;;;4.3;;
26824;SDS011;14402;48.178;11.566;2022-11-15T00:15:17;5.3;;;4.0;;
26824;SDS011;14402;48.178;11.566;2022-11-15T00:15:47;5.3;;;4.0;;
26824;SDS011;14402;48.178;11.566;2022-11-15T00:16:17;5.3;;;4.0;;
26824;SDS011;14402;48.178;11.566;2022-11-15T00:16:47;5.3;;;4.3;;
26824;SDS011;14402;48.178;11.566;2022-11-15T00:17:18;5.3;;;4.7;;
26824;SDS011;14402;48.178;11.566;2022-11-15T00:17:48;5.3;;;4.7;;
26824;SDS011;14402;48.178;11.566;2022-11-15T00:18:18;5.3;;;4.7;;
26824;SDS011;14402;48.178;11.566;2022-11-15T00:18:48;6.1;;;4.9;;
26824;SDS011;14402;48.178;11.566;2022-11-15T00:19:18;6.9;;;5.1;;
26824;SDS011;14402;48.178;11.566;2022-11-15T00:19:48;6.9;;;5.1;;
26824;SDS011;14402;48.178;11.566;2022-11-15T00:20:18;6.9;;;5.1;;
26824;SDS011;14402;48.178;11.566;2022-11-15T00:20:48;6.8;;;4.9;;
26824;SDS011;14402;48.178;11.566;2022-11-15T00:21:18;6.6;;;4.8;;
26824;SDS011;14402;48.178;11.566;2022-11-15T00:21:48;6.6;;;4.8;;
26824;SDS011;14402;48.178;11.566;2022-11-15T00:22:18;6.6;;;4.8;;
26824;SDS011;14402;48.178;11.566;2022-11-15T00:22:48;6.4;;;4.9;;
26824;SDS011;14402;48.178;11.566;2022-11-15T00:23:18;6.3;;;5.1;;
26824;SDS011;14402;48.178;11.566;2022-11-15T00:23:49;6.3;;;5.1;;
26824;SDS011;14402;48.178;11.566;2022-11-15T00:24:19;6.3;;;5.1;;
26824;SDS011;14402;48.178;11.566;2022-11-15T00:24:49;6.1;;;4.6;;
26824;SDS011;14402;48.178;11.566;2022-11-15T00:25:19;5.9;;;4.0;;
26824;SDS011;14402;48.178;11.566;2022-11-15T00:25:54;5.9;;;4.0;;
26824;SDS011;14402;48.178;11.566;2022-11-15T00:26:19;5.9;;;4.0;;
26824;SDS011;14402;48.178;11.566;2022-11-15T00:26:49;5.4;;;3.8;;
26824;SDS011;14402;48.178;11.566;2022-11-15T00:27:19;4.9;;;3.7;;
26824;SDS011;14402;48.178;11.566;2022-11-15T00:27:49;4.9;;;3.7;;
26824;SDS011;14402;48.178;11.566;2022-11-15T00:28:19;4.9;;;3.7;;
26824;SDS011;14402;48.178;11.566;2022-11-15T00:28:51;4.8;;;3.8;;
26824;SDS011;14402;48.178;11.566;2022-11-15T00:29:19;4.6;;;4.0;;
26824;SDS011;14402;48.178;11.566;2022-11-15T00:29:50;4.6;;;4.0;;
26824;SDS011;14402;48.178;11.566;2022-11-15T00:30:20;4.6;;;4.0;;
26824;SDS011;14402;48.178;11.566;2022-11-15T00:30:50;4.7;;;3.9;;
26824;SDS011;14402;48.178;11.566;2022-11-15T00:31:20;4.8;;;3.8;;
26824;SDS011;14402;48.178;11.566;2022-11-15T00:31:50;4.8;;;3.8;;
26824;SDS011;14402;48.178;11.566;2022-11-15T00:32:20;4.8;;;3.8;;
26824;SDS011;14402;48.178;11.566;2022-11-15T00:32:50;4.5;;;3.7;;
26824;SDS011;14402;48.178;11.566;2022-11-15T00:33:20;4.2;;;3.6;;
26824;SDS011;14402;48.178;11.566;2022-11-15T00:33:50;4.2;;;3.6;;
26824;SDS011;14402;48.178;11.566;2022-11-15T00:34:20;4.2;;;3.6;;
26824;SDS011;14402;48.178;11.566;2022-11-15T00:34:50;4.2;;;3.6;;
26824;SDS011;14402;48.178;11.566;2022-11-15T00:35:21;4.3;;;3.6;;
26824;SDS011;14402;48.178;11.566;2022-11-15T00:35:51;4.3;;;3.6;;
26824;SDS011;14402;48.178;11.566;2022-11-15T00:36:21;4.3;;;3.6;;
26824;SDS011;14402;48.178;11.566;2022-11-15T00:36:51;4.4;;;3.5;;
26824;SDS011;14402;48.178;11.566;2022-11-15T00:37:21;4.4;;;3.5;;
26824;SDS011;14402;48.178;11.566;2022-11-15T00:37:51;4.4;;;3.5;;
26824;SDS011;14402;48.178;11.566;2022-11-15T00:38:21;4.4;;;3.5;;
26824;SDS011;14402;48.178;11.566;2022-11-15T00:38:51;4.2;;;3.5;;
26824;SDS011;14402;48.178;11.566;2022-11-15T00:39:21;4.0;;;3.6;;
26824;SDS011;14402;48.178;11.566;2022-11-15T00:39:51;4.0;;;3.6;;
26824;SDS011;14402;48.178;11.566;2022-11-15T00:40:21;4.0;;;3.6;;
26824;SDS011;14402;48.178;11.566;2022-11-15T00:40:51;4.2;;;3.5;;
26824;SDS011;14402;48.178;11.566;2022-11-15T00:41:22;4.3;;;3.5;;
26824;SDS011;14402;48.178;11.566;2022-11-15T00:41:52;4.3;;;3.5;;
26824;SDS011;14402;48.178;11.566;2022-11-15T00:42:22;4.3;;;3.5;;
26824;SDS011;14402;48.178;11.566;2022-11-15T00:42:52;4.4;;;3.5;;
26824;SDS011;14402;48.178;11.566;2022-11-15T00:43:22;4.5;;;3.5;;
26824;SDS011;14402;48.178;11.566;2022-11-15T00:43:52;4.5;;;3.5;;
26824;SDS011;14402;48.178;11.566;2022-11-15T00:44:22;4.5;;;3.5;;
26824;SDS011;14402;48.178;11.566;2022-11-15T00:44:52;4.8;;;3.6;;
26824;SDS011;14402;48.178;11.566;2022-11-15T00:45:22;5.1;;;3.7;;
26824;SDS011;14402;48.178;11.566;2022-11-15T00:45:52;5.1;;;3.7;;
26824;SDS011;14402;48.178;11.566;2022-11-15T00:46:23;5.1;;;3.7;;
26824;SDS011;14402;48.178;11.566;2022-11-15T00:46:53;5.1;;;3.7;;
26824;SDS011;14402;48.178;11.566;2022-11-15T00:47:23;5.1;;;3.6;;
26824;SDS011;14402;48.178;11.566;2022-11-15T00:47:53;5.1;;;3.6;;
26824;SDS011;14402;48.178;11.566;2022-11-15T00:48:23;5.1;;;3.6;;
26824;SDS011;14402;48.178;11.566;2022-11-15T00:48:53;4.9;;;3.5;;
26824;SDS011;14402;48.178;11.566;2022-11-15T00:49:23;4.8;;;3.5;;
26824;SDS011;14402;48.178;11.566;2022-11-15T00:49:53;4.8;;;3.5;;
26824;SDS011;14402;48.178;11.566;2022-11-15T00:50:23;4.8;;;3.5;;
26824;SDS011;14402;48.178;11.566;2022-11-15T00:50:53;6.0;;;3.6;;
26824;SDS011;14402;48.178;11.566;2022-11-15T00:51:23;7.2;;;3.7;;
26824;SDS011;14402;48.178;11.566;2022-11-15T00:51:54;7.2;;;3.7;;
26824;SDS011;14402;48.178;11.566;2022-11-15T00:52:24;7.2;;;3.7;;
26824;SDS011;14402;48.178;11.566;2022-11-15T00:52:54;5.6;;;3.6;;
26824;SDS011;14402;48.178;11.566;2022-11-15T00:53:24;4.1;;;3.4;;
26824;SDS011;14402;48.178;11.566;2022-11-15T00:53:54;4.1;;;3.4;;
26824;SDS011;14402;48.178;11.566;2022-11-15T00:54:24;4.1;;;3.4;;
26824;SDS011;14402;48.178;11.566;2022-11-15T00:54:54;4.3;;;3.3;;
26824;SDS011;14402;48.178;11.566;2022-11-15T00:55:24;4.6;;;3.2;;
26824;SDS011;14402;48.178;11.566;2022-11-15T00:55:54;4.6;;;3.2;;
26824;SDS011;14402;48.178;11.566;2022-11-15T00:56:24;4.6;;;3.2;;
26824;SDS011;14402;48.178;11.566;2022-11-15T00:56:54;4.3;;;3.0;;
26824;SDS011;14402;48.178;11.566;2022-11-15T00:57:24;4.0;;;2.8;;
26824;SDS011;14402;48.178;11.566;2022-11-15T00:57:54;4.0;;;2.8;;
26824;SDS011;14402;48.178;11.566;2022-11-15T00:58:25;4.0;;;2.8;;
26824;SDS011;14402;48.178;11.566;2022-11-15T00:58:55;4.0;;;3.1;;
26824;SDS011;14402;48.178;11.566;2022-11-15T00:59:25;3.9;;;3.4;;
26824;SDS011;14402;48.178;11.566;2022-11-15T00:59:55;3.9;;;3.4;;
26824;SDS011;14402;48.178;11.566;2022-11-15T01:00:25;3.9;;;3.4;;
26824;SDS011;14402;48.178;11.566;2022-11-15T01:00:55;3.7;;;3.2;;
26824;SDS011;14402;48.178;11.566;2022-11-15T01:01:25;3.4;;;2.9;;
26824;SDS011;14402;48.178;11.566;2022-11-15T01:01:55;3.4;;;2.9;;
26824;SDS011;14402;48.178;11.566;2022-11-15T01:02:25;3.4;;;2.9;;
26824;SDS011;14402;48.178;11.566;2022-11-15T01:02:55;3.8;;;3.1;;
26824;SDS011;14402;48.178;11.566;2022-11-15T01:03:25;4.2;;;3.2;;
26824;SDS011;14402;48.178;11.566;2022-11-15T01:03:56;4.2;;;3.2;;
26824;SDS011;14402;48.178;11.566;2022-11-15T01:04:26;4.2;;;3.2;;
26824;SDS011;14402;48.178;11.566;2022-11-15T01:04:56;4.2;;;3.2;;
26824;SDS011;14402;48.178;11.566;2022-11-15T01:05:26;4.2;;;3.2;;
26824;SDS011;14402;48.178;11.566;2022-11-15T01:05:58;4.2;;;3.2;;
26824;SDS011;14402;48.178;11.566;2022-11-15T01:06:26;4.2;;;3.2;;
26824;SDS011;14402;48.178;11.566;2022-11-15T01:06:56;3.9;;;3.1;;
26824;SDS011;14402;48.178;11.566;2022-11-15T01:07:26;3.7;;;3.0;;
26824;SDS011;14402;48.178;11.566;2022-11-15T01:07:56;3.7;;;3.0;;
26824;SDS011;14402;48.178;11.566;2022-11-15T01:08:26;3.7;;;3.0;;
26824;SDS011;14402;48.178;11.566;2022-11-15T01:08:56;4.5;;;3.1;;
26824;SDS011;14402;48.178;11.566;2022-11-15T01:09:27;5.3;;;3.2;;
26824;SDS011;14402;48.178;11.566;2022-11-15T01:09:57;5.3;;;3.2;;
26824;SDS011;14402;48.178;11.566;2022-11-15T01:10:27;5.3;;;3.2;;
26824;SDS011;14402;48.178;11.566;2022-11-15T01:10:59;4.6;;;3.2;;
26824;SDS011;14402;48.178;11.566;2022-11-15T01:11:27;3.8;;;3.2;;
26824;SDS011;14402;48.178;11.566;2022-11-15T01:11:57;3.8;;;3.2;;
26824;SDS011;14402;48.178;11.566;2022-11-15T01:12:27;3.8;;;3.2;;
26824;SDS011;14402;48.178;11.566;2022-11-15T01:12:57;3.8;;;3.3;;
26824;SDS011;14402;48.178;11.566;2022-11-15T01:13:29;3.8;;;3.4;;
26824;SDS011;14402;48.178;11.566;2022-11-15T01:13:57;3.8;;;3.4;;
26824;SDS011;14402;48.178;11.566;2022-11-15T01:14:28;3.8;;;3.4;;
26824;SDS011;14402;48.178;11.566;2022-11-15T01:14:58;3.8;;;3.4;;
26824;SDS011;14402;48.178;11.566;2022-11-15T01:15:28;3.8;;;3.4;;
26824;SDS011;14402;48.178;11.566;2022-11-15T01:15:58;3.8;;;3.4;;
26824;SDS011;14402;48.178;11.566;2022-11-15T01:16:28;3.8;;;3.4;;
26824;SDS011;14402;48.178;11.566;2022-11-15T01:16:58;3.5;;;3.2;;
26824;SDS011;14402;48.178;11.566;2022-11-15T01:17:29;3.3;;;3.0;;
26824;SDS011;14402;48.178;11.566;2022-11-15T01:17:58;3.3;;;3.0;;
26824;SDS011;14402;48.178;11.566;2022-11-15T01:18:28;3.3;;;3.0;;
26824;SDS011;14402;48.178;11.566;2022-11-15T01:18:58;3.7;;;3.0;;
26824;SDS011;14402;48.178;11.566;2022-11-15T01:19:28;4.1;;;3.1;;
26824;SDS011;14402;48.178;11.566;2022-11-15T01:19:58;4.1;;;3.1;;
26824;SDS011;14402;48.178;11.566;2022-11-15T01:20:29;4.1;;;3.1;;
26824;SDS011;14402;48.178;11.566;2022-11-15T01:20:59;4.3;;;3.2;;
26824;SDS011;14402;48.178;11.566;2022-11-15T01:21:29;4.5;;;3.3;;
26824;SDS011;14402;48.178;11.566;2022-11-15T01:21:59;4.5;;;3.3;;
26824;SDS011;14402;48.178;11.566;2022-11-15T01:22:29;4.5;;;3.3;;
26824;SDS011;14402;48.178;11.566;2022-11-15T01:22:59;4.4;;;3.2;;
26824;SDS011;14402;48.178;11.566;2022-11-15T01:23:29;4.3;;;3.1;;
26824;SDS011;14402;48.178;11.566;2022-11-15T01:23:59;4.3;;;3.1;;
26824;SDS011;14402;48.178;11.566;2022-11-15T01:24:29;4.3;;;3.1;;
26824;SDS011;14402;48.178;11.566;2022-11-15T01:24:59;4.2;;;3.2;;
26824;SDS011;14402;48.178;11.566;2022-11-15T01:25:29;4.1;;;3.2;;
26824;SDS011;14402;48.178;11.566;2022-11-15T01:26:00;4.1;;;3.2;;
26824;SDS011;14402;48.178;11.566;2022-11-15T01:26:30;4.1;;;3.2;;
26824;SDS011;14402;48.178;11.566;2022-11-15T01:27:00;4.6;;;3.2;;
26824;SDS011;14402;48.178;11.566;2022-11-15T01:27:30;5.2;;;3.1;;
26824;SDS011;14402;48.178;11.566;2022-11-15T01:28:00;5.2;;;3.1;;
26824;SDS011;14402;48.178;11.566;2022-11-15T01:28:30;5.2;;;3.1;;
26824;SDS011;14402;48.178;11.566;2022-11-15T01:29:00;4.6;;;3.2;;
26824;SDS011;14402;48.178;11.566;2022-11-15T01:29:30;3.9;;;3.2;;
26824;SDS011;14402;48.178;11.566;2022-11-15T01:30:00;3.9;;;3.2;;
26824;SDS011;14402;48.178;11.566;2022-11-15T01:30:30;3.9;;;3.2;;
26824;SDS011;14402;48.178;11.566;2022-11-15T01:31:01;4.1;;;3.0;;
26824;SDS011;14402;48.178;11.566;2022-11-15T01:31:31;4.3;;;2.8;;
26824;SDS011;14402;48.178;11.566;2022-11-15T01:32:01;4.3;;;2.8;;
26824;SDS011;14402;48.178;11.566;2022-11-15T01:32:31;4.3;;;2.8;;
26824;SDS011;14402;48.178;11.566;2022-11-15T01:33:01;4.2;;;2.9;;
26824;SDS011;14402;48.178;11.566;2022-11-15T01:33:33;4.0;;;3.1;;
26824;SDS011;14402;48.178;11.566;2022-11-15T01:34:01;4.0;;;3.1;;
26824;SDS011;14402;48.178;11.566;2022-11-15T01:34:31;4.0;;;3.1;;
26824;SDS011;14402;48.178;11.566;2022-11-15T01:35:01;3.7;;;3.0;;
26824;SDS011;14402;48.178;11.566;2022-11-15T01:35:31;3.4;;;3.0;;
26824;SDS011;14402;48.178;11.566;2022-11-15T01:36:03;3.4;;;3.0;;
26824;SDS011;14402;48.178;11.566;2022-11-15T01:36:31;3.4;;;3.0;;
26824;SDS011;14402;48.178;11.566;2022-11-15T01:37:01;3.5;;;3.0;;
26824;SDS011;14402;48.178;11.566;2022-11-15T01:37:31;3.5;;;2.9;;
26824;SDS011;14402;48.178;11.566;2022-11-15T01:38:02;3.5;;;2.9;;
26824;SDS011;14402;48.178;11.566;2022-11-15T01:38:32;3.5;;;2.9;;
26824;SDS011;14402;48.178;11.566;2022-11-15T01:39:02;3.5;;;2.8;;
26824;SDS011;14402;48.178;11.566;2022-11-15T01:39:32;3.4;;;2.7;;
26824;SDS011;14402;48.178;11.566;2022-11-15T01:40:02;3.4;;;2.7;;
26824;SDS011;14402;48.178;11.566;2022-11-15T01:40:32;3.4;;;2.7;;
26824;SDS011;14402;48.178;11.566;2022-11-15T01:41:02;3.3;;;2.7;;
26824;SDS011;14402;48.178;11.566;2022-11-15T01:41:32;3.2;;;2.6;;
26824;SDS011;14402;48.178;11.566;2022-11-15T01:42:02;3.2;;;2.6;;
26824;SDS011;14402;48.178;11.566;2022-11-15T01:42:32;3.2;;;2.6;;
26824;SDS011;14402;48.178;11.566;2022-11-15T01:43:18;3.0;;;2.5;;
26824;SDS011;14402;48.178;11.566;2022-11-15T01:43:34;2.8;;;2.5;;
26824;SDS011;14402;48.178;11.566;2022-11-15T01:44:38;2.8;;;2.5;;
26824;SDS011;14402;48.178;11.566;2022-11-15T01:44:39;2.8;;;2.5;;
26824;SDS011;14402;48.178;11.566;2022-11-15T01:45:03;2.9;;;2.6;;
26824;SDS011;14402;48.178;11.566;2022-11-15T01:45:33;3.0;;;2.7;;
26824;SDS011;14402;48.178;11.566;2022-11-15T01:46:04;3.0;;;2.7;;
26824;SDS011;14402;48.178;11.566;2022-11-15T01:46:34;3.0;;;2.7;;
26824;SDS011;14402;48.178;11.566;2022-11-15T01:47:04;3.0;;;2.6;;
26824;SDS011;14402;48.178;11.566;2022-11-15T01:47:35;3.0;;;2.4;;
26824;SDS011;14402;48.178;11.566;2022-11-15T01:48:04;3.0;;;2.4;;
26824;SDS011;14402;48.178;11.566;2022-11-15T01:48:34;3.0;;;2.4;;
26824;SDS011;14402;48.178;11.566;2022-11-15T01:49:05;3.3;;;2.5;;
26824;SDS011;14402;48.178;11.566;2022-11-15T01:49:35;3.7;;;2.5;;
26824;SDS011;14402;48.178;11.566;2022-11-15T01:50:05;3.7;;;2.5;;
26824;SDS011;14402;48.178;11.566;2022-11-15T01:50:34;3.7;;;2.5;;
26824;SDS011;14402;48.178;11.566;2022-11-15T01:51:04;3.3;;;2.5;;
26824;SDS011;14402;48.178;11.566;2022-11-15T01:51:34;2.9;;;2.6;;
26824;SDS011;14402;48.178;11.566;2022-11-15T01:52:05;2.9;;;2.6;;
26824;SDS011;14402;48.178;11.566;2022-11-15T01:52:34;2.9;;;2.6;;
26824;SDS011;14402;48.178;11.566;2022-11-15T01:53:04;2.9;;;2.6;;
26824;SDS011;14402;48.178;11.566;2022-11-15T01:53:34;2.9;;;2.6;;
26824;SDS011;14402;48.178;11.566;2022-11-15T01:54:05;2.9;;;2.6;;
26824;SDS011;14402;48.178;11.566;2022-11-15T01:54:35;2.9;;;2.6;;
26824;SDS011;14402;48.178;11.566;2022-11-15T01:55:05;3.0;;;2.5;;
26824;SDS011;14402;48.178;11.566;2022-11-15T01:55:35;3.0;;;2.5;;
26824;SDS011;14402;48.178;11.566;2022-11-15T01:56:05;3.0;;;2.5;;
26824;SDS011;14402;48.178;11.566;2022-11-15T01:56:36;3.0;;;2.5;;
26824;SDS011;14402;48.178;11.566;2022-11-15T01:57:06;3.3;;;2.5;;
26824;SDS011;14402;48.178;11.566;2022-11-15T01:57:35;3.6;;;2.4;;
26824;SDS011;14402;48.178;11.566;2022-11-15T01:58:05;3.6;;;2.4;;
26824;SDS011;14402;48.178;11.566;2022-11-15T01:58:35;3.6;;;2.4;;
26824;SDS011;14402;48.178;11.566;2022-11-15T01:59:06;3.2;;;2.5;;
26824;SDS011;14402;48.178;11.566;2022-11-15T01:59:35;2.8;;;2.5;;
26824;SDS011;14402;48.178;11.566;2022-11-15T02:00:06;2.8;;;2.5;;
26824;SDS011;14402;48.178;11.566;2022-11-15T02:00:36;3.2;;;2.5;;
26824;SDS011;14402;48.178;11.566;2022-11-15T02:01:06;3.7;;;2.5;;
26824;SDS011;14402;48.178;11.566;2022-11-15T02:01:36;3.7;;;2.5;;
26824;SDS011;14402;48.178;11.566;2022-11-15T02:02:06;3.7;;;2.5;;
26824;SDS011;14402;48.178;11.566;2022-11-15T02:02:36;3.2;;;2.4;;
26824;SDS011;14402;48.178;11.566;2022-11-15T02:03:06;2.6;;;2.3;;
26824;SDS011;14402;48.178;11.566;2022-11-15T02:03:38;2.6;;;2.3;;
26824;SDS011;14402;48.178;11.566;2022-11-15T02:04:07;2.6;;;2.3;;
26824;SDS011;14402;48.178;11.566;2022-11-15T02:04:37;2.6;;;2.3;;
26824;SDS011;14402;48.178;11.566;2022-11-15T02:05:07;2.6;;;2.4;;
26824;SDS011;14402;48.178;11.566;2022-11-15T02:05:37;2.6;;;2.4;;
26824;SDS011;14402;48.178;11.566;2022-11-15T02:06:07;2.6;;;2.4;;
26824;SDS011;14402;48.178;11.566;2022-11-15T02:06:37;3.6;;;2.7;;
26824;SDS011;14402;48.178;11.566;2022-11-15T02:07:07;4.7;;;2.9;;
26824;SDS011;14402;48.178;11.566;2022-11-15T02:07:37;4.7;;;2.9;;
26824;SDS011;14402;48.178;11.566;2022-11-15T02:08:07;4.7;;;2.9;;
26824;SDS011;14402;48.178;11.566;2022-11-15T02:08:37;4.1;;;2.8;;
26824;SDS011;14402;48.178;11.566;2022-11-15T02:09:07;3.6;;;2.6;;
26824;SDS011;14402;48.178;11.566;2022-11-15T02:09:37;3.6;;;2.6;;
26824;SDS011;14402;48.178;11.566;2022-11-15T02:10:08;3.6;;;2.6;;
26824;SDS011;14402;48.178;11.566;2022-11-15T02:10:37;3.2;;;2.4;;
26824;SDS011;14402;48.178;11.566;2022-11-15T02:11:08;2.9;;;2.3;;
26824;SDS011;14402;48.178;11.566;2022-11-15T02:11:38;2.9;;;2.3;;
26824;SDS011;14402;48.178;11.566;2022-11-15T02:12:08;2.9;;;2.3;;
26824;SDS011;14402;48.178;11.566;2022-11-15T02:12:38;3.5;;;2.4;;
26824;SDS011;14402;48.178;11.566;2022-11-15T02:13:08;4.1;;;2.6;;
26824;SDS011;14402;48.178;11.566;2022-11-15T02:13:38;4.1;;;2.6;;
26824;SDS011;14402;48.178;11.566;2022-11-15T02:14:08;4.1;;;2.6;;
26824;SDS011;14402;48.178;11.566;2022-11-15T02:14:38;3.3;;;2.5;;
26824;SDS011;14402;48.178;11.566;2022-11-15T02:15:08;2.6;;;2.4;;
26824;SDS011;14402;48.178;11.566;2022-11-15T02:15:40;2.6;;;2.4;;
26824;SDS011;14402;48.178;11.566;2022-11-15T02:16:09;2.6;;;2.4;;
26824;SDS011;14402;48.178;11.566;2022-11-15T02:16:40;2.9;;;2.5;;
26824;SDS011;14402;48.178;11.566;2022-11-15T02:17:14;3.2;;;2.5;;
26824;SDS011;14402;48.178;11.566;2022-11-15T02:17:43;3.2;;;2.5;;
26824;SDS011;14402;48.178;11.566;2022-11-15T02:18:10;3.2;;;2.5;;
26824;SDS011;14402;48.178;11.566;2022-11-15T02:18:40;3.3;;;2.5;;
26824;SDS011;14402;48.178;11.566;2022-11-15T02:19:20;3.5;;;2.6;;
26824;SDS011;14402;48.178;11.566;2022-11-15T02:19:44;3.5;;;2.6;;
26824;SDS011;14402;48.178;11.566;2022-11-15T02:20:42;3.5;;;2.6;;
26824;SDS011;14402;48.178;11.566;2022-11-15T02:20:44;3.3;;;2.7;;
26824;SDS011;14402;48.178;11.566;2022-11-15T02:21:11;3.1;;;2.8;;
26824;SDS011;14402;48.178;11.566;2022-11-15T02:21:41;3.1;;;2.8;;
26824;SDS011;14402;48.178;11.566;2022-11-15T02:22:10;3.1;;;2.8;;
26824;SDS011;14402;48.178;11.566;2022-11-15T02:22:43;3.2;;;2.8;;
26824;SDS011;14402;48.178;11.566;2022-11-15T02:23:14;3.3;;;2.7;;
26824;SDS011;14402;48.178;11.566;2022-11-15T02:23:47;3.3;;;2.7;;
26824;SDS011;14402;48.178;11.566;2022-11-15T02:24:16;3.3;;;2.7;;
26824;SDS011;14402;48.178;11.566;2022-11-15T02:24:49;3.2;;;2.8;;
26824;SDS011;14402;48.178;11.566;2022-11-15T02:25:14;3.1;;;2.8;;
26824;SDS011;14402;48.178;11.566;2022-11-15T02:25:41;3.1;;;2.8;;
26824;SDS011;14402;48.178;11.566;2022-11-15T02:26:17;3.1;;;2.8;;
26824;SDS011;14402;48.178;11.566;2022-11-15T02:26:46;3.2;;;2.7;;
26824;SDS011;14402;48.178;11.566;2022-11-15T02:27:16;3.2;;;2.5;;
26824;SDS011;14402;48.178;11.566;2022-11-15T02:27:43;3.2;;;2.5;;
26824;SDS011;14402;48.178;11.566;2022-11-15T02:28:26;3.2;;;2.5;;
26824;SDS011;14402;48.178;11.566;2022-11-15T02:28:44;3.1;;;2.5;;
26824;SDS011;14402;48.178;11.566;2022-11-15T02:29:11;3.0;;;2.5;;
26824;SDS011;14402;48.178;11.566;2022-11-15T02:29:46;3.0;;;2.5;;
26824;SDS011;14402;48.178;11.566;2022-11-15T02:30:15;3.0;;;2.5;;
26824;SDS011;14402;48.178;11.566;2022-11-15T02:30:41;3.5;;;2.7;;
26824;SDS011;14402;48.178;11.566;2022-11-15T02:31:13;4.0;;;2.8;;
26824;SDS011;14402;48.178;11.566;2022-11-15T02:31:44;4.0;;;2.8;;
26824;SDS011;14402;48.178;11.566;2022-11-15T02:32:13;4.0;;;2.8;;
26824;SDS011;14402;48.178;11.566;2022-11-15T02:32:43;3.6;;;2.8;;
26824;SDS011;14402;48.178;11.566;2022-11-15T02:33:14;3.2;;;2.7;;
26824;SDS011;14402;48.178;11.566;2022-11-15T02:33:43;3.2;;;2.7;;
26824;SDS011;14402;48.178;11.566;2022-11-15T02:34:16;3.2;;;2.7;;
26824;SDS011;14402;48.178;11.566;2022-11-15T02:34:44;4.1;;;2.8;;
26824;SDS011;14402;48.178;11.566;2022-11-15T02:35:13;4.9;;;2.8;;
26824;SDS011;14402;48.178;11.566;2022-11-15T02:35:43;4.9;;;2.8;;
26824;SDS011;14402;48.178;11.566;2022-11-15T02:36:13;4.9;;;2.8;;
26824;SDS011;14402;48.178;11.566;2022-11-15T02:36:43;4.3;;;2.8;;
26824;SDS011;14402;48.178;11.566;2022-11-15T02:37:15;3.8;;;2.8;;
26824;SDS011;14402;48.178;11.566;2022-11-15T02:37:43;3.8;;;2.8;;
26824;SDS011;14402;48.178;11.566;2022-11-15T02:38:15;3.8;;;2.8;;
26824;SDS011;14402;48.178;11.566;2022-11-15T02:38:44;4.4;;;2.9;;
26824;SDS011;14402;48.178;11.566;2022-11-15T02:39:15;5.0;;;3.1;;
26824;SDS011;14402;48.178;11.566;2022-11-15T02:39:44;5.0;;;3.1;;
26824;SDS011;14402;48.178;11.566;2022-11-15T02:40:14;5.0;;;3.1;;
26824;SDS011;14402;48.178;11.566;2022-11-15T02:40:44;4.2;;;2.9;;
26824;SDS011;14402;48.178;11.566;2022-11-15T02:41:15;3.3;;;2.7;;
26824;SDS011;14402;48.178;11.566;2022-11-15T02:41:45;3.3;;;2.7;;
26824;SDS011;14402;48.178;11.566;2022-11-15T02:42:14;3.3;;;2.7;;
26824;SDS011;14402;48.178;11.566;2022-11-15T02:45:44;3.6;;;3.0;;
26824;SDS011;14402;48.178;11.566;2022-11-15T02:46:14;3.6;;;3.0;;
26824;SDS011;14402;48.178;11.566;2022-11-15T02:46:45;4.6;;;3.0;;
26824;SDS011;14402;48.178;11.566;2022-11-15T02:47:19;5.6;;;3.1;;
26824;SDS011;14402;48.178;11.566;2022-11-15T02:47:45;5.6;;;3.1;;
26824;SDS011;14402;48.178;11.566;2022-11-15T02:48:14;5.6;;;3.1;;
26824;SDS011;14402;48.178;11.566;2022-11-15T02:48:44;5.2;;;3.1;;
26824;SDS011;14402;48.178;11.566;2022-11-15T02:49:14;4.8;;;3.1;;
26824;SDS011;14402;48.178;11.566;2022-11-15T02:49:45;4.8;;;3.1;;
26824;SDS011;14402;48.178;11.566;2022-11-15T02:50:16;4.8;;;3.1;;
26824;SDS011;14402;48.178;11.566;2022-11-15T02:50:45;5.4;;;3.2;;
26824;SDS011;14402;48.178;11.566;2022-11-15T02:51:15;5.9;;;3.2;;
26824;SDS011;14402;48.178;11.566;2022-11-15T02:51:46;5.9;;;3.2;;
26824;SDS011;14402;48.178;11.566;2022-11-15T02:52:15;5.9;;;3.2;;
26824;SDS011;14402;48.178;11.566;2022-11-15T02:52:45;4.7;;;3.0;;
26824;SDS011;14402;48.178;11.566;2022-11-15T02:53:15;3.5;;;2.7;;
26824;SDS011;14402;48.178;11.566;2022-11-15T02:53:45;3.5;;;2.7;;
26824;SDS011;14402;48.178;11.566;2022-11-15T02:54:17;3.5;;;2.7;;
26824;SDS011;14402;48.178;11.566;2022-11-15T02:54:52;4.0;;;2.8;;
26824;SDS011;14402;48.178;11.566;2022-11-15T02:55:31;4.4;;;2.8;;
26824;SDS011;14402;48.178;11.566;2022-11-15T02:55:46;4.4;;;2.8;;
26824;SDS011;14402;48.178;11.566;2022-11-15T02:56:16;4.4;;;2.8;;
26824;SDS011;14402;48.178;11.566;2022-11-15T02:56:46;4.7;;;2.8;;
26824;SDS011;14402;48.178;11.566;2022-11-15T02:57:16;4.9;;;2.8;;
26824;SDS011;14402;48.178;11.566;2022-11-15T02:57:49;4.9;;;2.8;;
26824;SDS011;14402;48.178;11.566;2022-11-15T02:58:21;4.9;;;2.8;;
26824;SDS011;14402;48.178;11.566;2022-11-15T02:58:56;4.7;;;3.0;;
26824;SDS011;14402;48.178;11.566;2022-11-15T02:59:20;4.4;;;3.2;;
26824;SDS011;14402;48.178;11.566;2022-11-15T02:59:51;4.4;;;3.2;;
26824;SDS011;14402;48.178;11.566;2022-11-15T03:00:17;4.4;;;3.2;;
26824;SDS011;14402;48.178;11.566;2022-11-15T03:00:47;4.1;;;3.0;;
26824;SDS011;14402;48.178;11.566;2022-11-15T03:01:19;3.8;;;2.8;;
26824;SDS011;14402;48.178;11.566;2022-11-15T03:01:51;3.8;;;2.8;;
26824;SDS011;14402;48.178;11.566;2022-11-15T03:02:19;3.8;;;2.8;;
26824;SDS011;14402;48.178;11.566;2022-11-15T03:02:52;4.8;;;3.0;;
26824;SDS011;14402;48.178;11.566;2022-11-15T03:03:21;5.7;;;3.2;;
26824;SDS011;14402;48.178;11.566;2022-11-15T03:03:49;5.7;;;3.2;;
26824;SDS011;14402;48.178;11.566;2022-11-15T03:04:20;5.7;;;3.2;;
26824;SDS011;14402;48.178;11.566;2022-11-15T03:04:50;4.8;;;3.2;;
26824;SDS011;14402;48.178;11.566;2022-11-15T03:05:19;3.9;;;3.2;;
26824;SDS011;14402;48.178;11.566;2022-11-15T03:05:49;3.9;;;3.2;;
26824;SDS011;14402;48.178;11.566;2022-11-15T03:06:20;3.9;;;3.2;;
26824;SDS011;14402;48.178;11.566;2022-11-15T03:06:48;4.9;;;3.2;;